Enigma III Af Sthlm — SJVH — position and weather

sailwx.info

Track history (hours):
 
Tides and Currents Weather Stations Pressure Air Temp Water Temp Dewpoint Dewpoint Depression Visibility Wind Speed Wind Dir Waves Ship Positions

Enigma III Af Sthlm

Last reported at 2014-Aug-01 12:32 UTC. Time now 2014-Aug-29 22:23 UTC.
Position N 36°54' E 025°54'.
Warning: this ship's position is 28 days out of date.

Length 14 m.

Type: Pleasure craft. MMSI: 265698420.

Date/timePositionNaut miles runAvg speedWind from/ knotsBaromVisibWave heightAir tempDewpointWater temp
2014-Aug-01 12:32N 36°54' E 025°54'6 0.1
2014-Jul-30 15:33N 36°50' E 025°49'8 7.1
2014-Jul-30 14:27N 36°52' E 025°39'5 5.9
2014-Jul-30 13:33N 36°53' E 025°33'6 5.3
2014-Jul-30 12:31N 36°54' E 025°26'6 6.3
2014-Jul-30 11:33N 36°56' E 025°19'6 5.8
2014-Jul-30 10:31N 36°58' E 025°12'5 4.8
2014-Jul-30 09:34N 36°60' E 025°06'3 2.5
2014-Jul-30 08:31N 37°02' E 025°05'0 0.0
2014-Jul-30 07:31N 37°02' E 025°05'0 0.0
2014-Jul-30 00:19N 37°02' E 025°05'0 0.0
2014-Jul-29 20:25N 37°02' E 025°05'0 0.0
2014-Jul-29 17:13N 37°02' E 025°05'0 0.0
2014-Jul-29 15:31N 37°02' E 025°05'3 2.7
2014-Jul-29 14:27N 37°05' E 025°03'  
Track history (hours):
 
Tides and Currents Weather Stations Pressure Air Temp Water Temp Dewpoint Dewpoint Depression Visibility Wind Speed Wind Dir Waves Ship Positions

Enigma III Af Sthlm

Last reported at 2014-Aug-01 12:32 UTC. Time now 2014-Aug-29 22:23 UTC.
Position N 36°54' E 025°54'.
Warning: this ship's position is 28 days out of date.

Length 14 m.

Type: Pleasure craft. MMSI: 265698420.

Date/timePositionNaut miles runAvg speedWind from/ knotsBaromVisibWave heightAir tempDewpointWater temp
2014-Aug-01 12:32N 36°54' E 025°54'6 0.1
2014-Jul-30 15:33N 36°50' E 025°49'8 7.1
2014-Jul-30 14:27N 36°52' E 025°39'5 5.9
2014-Jul-30 13:33N 36°53' E 025°33'6 5.3
2014-Jul-30 12:31N 36°54' E 025°26'6 6.3
2014-Jul-30 11:33N 36°56' E 025°19'6 5.8
2014-Jul-30 10:31N 36°58' E 025°12'5 4.8
2014-Jul-30 09:34N 36°60' E 025°06'3 2.5
2014-Jul-30 08:31N 37°02' E 025°05'0 0.0
2014-Jul-30 07:31N 37°02' E 025°05'0 0.0
2014-Jul-30 00:19N 37°02' E 025°05'0 0.0
2014-Jul-29 20:25N 37°02' E 025°05'0 0.0
2014-Jul-29 17:13N 37°02' E 025°05'0 0.0
2014-Jul-29 15:31N 37°02' E 025°05'3 2.7
2014-Jul-29 14:27N 37°05' E 025°03'  

Dump ship's entire track history